createdAt,value
2018-09-16T00:00:40.316Z,21.44
2018-09-16T00:01:40.752Z,21.44
2018-09-16T00:02:40.297Z,21.45
2018-09-16T00:03:40.672Z,21.43
2018-09-16T00:04:40.183Z,21.43
2018-09-16T00:05:40.327Z,21.44
2018-09-16T00:06:40.588Z,21.46
2018-09-16T00:07:40.348Z,21.44
2018-09-16T00:08:40.267Z,21.45
2018-09-16T00:09:40.502Z,21.44
2018-09-16T00:10:40.219Z,21.44
2018-09-16T00:11:40.711Z,21.42
2018-09-16T00:12:40.141Z,21.45
2018-09-16T00:13:40.847Z,21.44
2018-09-16T00:14:40.791Z,21.46
2018-09-16T00:15:40.363Z,21.44
2018-09-16T00:16:40.801Z,21.44
2018-09-16T00:17:40.345Z,21.43
2018-09-16T00:18:40.328Z,21.45
2018-09-16T00:19:40.098Z,21.44
2018-09-16T00:20:40.374Z,21.44
2018-09-16T00:21:40.406Z,21.44
2018-09-16T00:22:40.345Z,21.45
2018-09-16T00:23:40.372Z,21.43
2018-09-16T00:24:40.320Z,21.45
2018-09-16T00:25:40.250Z,21.42
2018-09-16T00:26:40.467Z,21.43
2018-09-16T00:27:40.338Z,21.4
2018-09-16T00:28:40.355Z,21.4
2018-09-16T00:29:40.513Z,21.42
2018-09-16T00:30:40.340Z,21.43
2018-09-16T00:31:40.694Z,21.39
2018-09-16T00:32:40.942Z,21.43
2018-09-16T00:33:40.366Z,21.4
2018-09-16T00:34:40.256Z,21.42
2018-09-16T00:35:40.221Z,21.43
2018-09-16T00:36:40.292Z,21.4
2018-09-16T00:37:40.358Z,21.4
2018-09-16T00:38:40.301Z,21.42
2018-09-16T00:39:40.332Z,21.39
2018-09-16T00:40:40.287Z,21.42
2018-09-16T00:41:40.484Z,21.42
2018-09-16T00:42:40.186Z,21.42
2018-09-16T00:43:40.113Z,21.39
2018-09-16T00:44:40.481Z,21.42
2018-09-16T00:45:40.197Z,21.4
2018-09-16T00:46:40.291Z,21.43
2018-09-16T00:47:40.415Z,21.42
2018-09-16T00:48:40.228Z,21.4
2018-09-16T00:49:40.335Z,21.39
2018-09-16T00:50:40.294Z,21.39
2018-09-16T00:51:40.231Z,21.38
2018-09-16T00:52:40.246Z,21.4
2018-09-16T00:53:40.237Z,21.37
2018-09-16T00:54:40.269Z,21.39
2018-09-16T00:55:40.061Z,21.39
2018-09-16T00:56:40.289Z,21.42
2018-09-16T00:57:40.299Z,21.4
2018-09-16T00:58:40.294Z,21.39
2018-09-16T00:59:40.292Z,21.38
2018-09-16T01:00:40.235Z,21.37
2018-09-16T01:01:40.064Z,21.4
2018-09-16T01:02:40.259Z,21.38
2018-09-16T01:03:40.208Z,21.37
2018-09-16T01:04:40.069Z,21.4
2018-09-16T01:05:40.181Z,21.39
2018-09-16T01:06:40.378Z,21.39
2018-09-16T01:07:40.355Z,21.4
2018-09-16T01:08:40.268Z,21.4
2018-09-16T01:09:40.373Z,21.38
2018-09-16T01:10:40.350Z,21.39
2018-09-16T01:11:40.335Z,21.38
2018-09-16T01:12:40.294Z,21.38
2018-09-16T01:13:40.430Z,21.38
2018-09-16T01:14:40.306Z,21.39
2018-09-16T01:15:40.280Z,21.38
2018-09-16T01:16:40.470Z,21.36
2018-09-16T01:17:40.244Z,21.39
2018-09-16T01:18:40.102Z,21.38
2018-09-16T01:19:40.609Z,21.38
2018-09-16T01:20:40.374Z,21.38
2018-09-16T01:21:40.130Z,21.39
2018-09-16T01:22:40.348Z,21.36
2018-09-16T01:23:40.218Z,21.38
2018-09-16T01:24:40.147Z,21.37
2018-09-16T01:25:40.108Z,21.37
2018-09-16T01:26:40.082Z,21.38
2018-09-16T01:27:40.526Z,21.38
2018-09-16T01:28:40.375Z,21.37
2018-09-16T01:29:40.372Z,21.38
2018-09-16T01:30:40.357Z,21.35
2018-09-16T01:31:40.372Z,21.37
2018-09-16T01:32:40.221Z,21.38
2018-09-16T01:33:40.134Z,21.36
2018-09-16T01:34:40.318Z,21.37
2018-09-16T01:35:40.187Z,21.39
2018-09-16T01:36:40.229Z,21.38
2018-09-16T01:37:40.525Z,21.37
2018-09-16T01:38:40.248Z,21.35
2018-09-16T01:39:40.350Z,21.38
2018-09-16T01:40:40.142Z,21.38
2018-09-16T01:41:40.273Z,21.36
2018-09-16T01:42:40.289Z,21.35
2018-09-16T01:43:40.058Z,21.35
2018-09-16T01:44:40.341Z,21.38
2018-09-16T01:45:40.107Z,21.36
2018-09-16T01:46:40.618Z,21.37
2018-09-16T01:47:40.461Z,21.35
2018-09-16T01:48:40.420Z,21.36
2018-09-16T01:49:40.384Z,21.38
2018-09-16T01:50:40.505Z,21.36
2018-09-16T01:51:40.255Z,21.37
2018-09-16T01:52:40.741Z,21.34
2018-09-16T01:53:40.161Z,21.35
2018-09-16T01:54:40.425Z,21.35
2018-09-16T01:55:40.273Z,21.35
2018-09-16T01:56:40.431Z,21.35
2018-09-16T01:57:40.225Z,21.35
2018-09-16T01:58:40.409Z,21.37
2018-09-16T01:59:40.235Z,21.34
2018-09-16T02:00:40.247Z,21.34
2018-09-16T02:01:40.227Z,21.35
2018-09-16T02:02:40.155Z,21.33
2018-09-16T02:03:40.231Z,21.35
2018-09-16T02:04:40.298Z,21.36
2018-09-16T02:05:40.375Z,21.35
2018-09-16T02:06:40.255Z,21.33
2018-09-16T02:07:40.072Z,21.34
2018-09-16T02:08:40.303Z,21.35
2018-09-16T02:09:40.381Z,21.34
2018-09-16T02:10:40.297Z,21.34
2018-09-16T02:11:40.261Z,21.35
2018-09-16T02:12:40.148Z,21.36
2018-09-16T02:13:40.189Z,21.34
2018-09-16T02:14:40.303Z,21.37
2018-09-16T02:15:40.185Z,21.34
2018-09-16T02:16:40.260Z,21.34
2018-09-16T02:17:40.362Z,21.33
2018-09-16T02:18:40.313Z,21.35
2018-09-16T02:19:40.155Z,21.32
2018-09-16T02:20:40.514Z,21.34
2018-09-16T02:21:40.375Z,21.31
2018-09-16T02:22:40.386Z,21.34
2018-09-16T02:23:40.374Z,21.34
2018-09-16T02:24:40.279Z,21.32
2018-09-16T02:25:40.408Z,21.33
2018-09-16T02:26:40.338Z,21.35
2018-09-16T02:27:40.215Z,21.32
2018-09-16T02:28:40.138Z,21.33
2018-09-16T02:29:40.353Z,21.35
2018-09-16T02:30:40.472Z,21.34
2018-09-16T02:31:40.260Z,21.33
2018-09-16T02:32:40.515Z,21.35
2018-09-16T02:33:40.285Z,21.33
2018-09-16T02:34:40.210Z,21.32
2018-09-16T02:35:40.229Z,21.34
2018-09-16T02:36:40.257Z,21.32
2018-09-16T02:37:40.205Z,21.32
2018-09-16T02:38:40.315Z,21.33
2018-09-16T02:39:40.252Z,21.32
2018-09-16T02:40:40.368Z,21.32
2018-09-16T02:41:40.134Z,21.33
2018-09-16T02:42:40.235Z,21.33
2018-09-16T02:43:40.544Z,21.32
2018-09-16T02:44:40.320Z,21.32
2018-09-16T02:45:40.286Z,21.32
2018-09-16T02:46:40.193Z,21.31
2018-09-16T02:47:40.182Z,21.33
2018-09-16T02:48:40.290Z,21.3
2018-09-16T02:49:40.471Z,21.32
2018-09-16T02:50:40.517Z,21.33
2018-09-16T02:51:40.092Z,21.32
2018-09-16T02:52:40.469Z,21.32
2018-09-16T02:53:40.279Z,21.3
2018-09-16T02:54:40.273Z,21.33
2018-09-16T02:55:40.709Z,21.31
2018-09-16T02:56:40.161Z,21.31
2018-09-16T02:57:40.233Z,21.31
2018-09-16T02:58:40.287Z,21.31
2018-09-16T02:59:40.167Z,21.31
2018-09-16T03:00:40.744Z,21.33
2018-09-16T03:01:40.162Z,21.31
2018-09-16T03:02:40.341Z,21.32
2018-09-16T03:03:40.231Z,21.31
2018-09-16T03:04:40.138Z,21.29
2018-09-16T03:05:40.379Z,21.32
2018-09-16T03:06:40.340Z,21.31
2018-09-16T03:07:40.335Z,21.32
2018-09-16T03:08:40.226Z,21.32
2018-09-16T03:09:40.271Z,21.33
2018-09-16T03:10:40.311Z,21.32
2018-09-16T03:11:40.785Z,21.32
2018-09-16T03:12:40.299Z,21.31
2018-09-16T03:13:40.144Z,21.3
2018-09-16T03:14:40.513Z,21.32
2018-09-16T03:15:40.334Z,21.32
2018-09-16T03:16:40.343Z,21.31
2018-09-16T03:17:40.432Z,21.32
2018-09-16T03:18:40.561Z,21.32
2018-09-16T03:19:40.077Z,21.31
2018-09-16T03:20:40.412Z,21.32
2018-09-16T03:21:40.452Z,21.29
2018-09-16T03:22:40.207Z,21.31
2018-09-16T03:23:40.220Z,21.3
2018-09-16T03:24:40.233Z,21.3
2018-09-16T03:25:40.026Z,21.3
2018-09-16T03:26:40.132Z,21.29
2018-09-16T03:27:40.304Z,21.31
2018-09-16T03:28:40.213Z,21.29
2018-09-16T03:29:40.329Z,21.31
2018-09-16T03:30:40.344Z,21.3
2018-09-16T03:31:40.104Z,21.29
2018-09-16T03:32:40.361Z,21.29
2018-09-16T03:33:40.238Z,21.3
2018-09-16T03:34:40.166Z,21.29
2018-09-16T03:35:40.202Z,21.3
2018-09-16T03:36:40.262Z,21.3
2018-09-16T03:37:40.215Z,21.3
2018-09-16T03:38:40.105Z,21.3
2018-09-16T03:39:40.198Z,21.28
2018-09-16T03:40:40.668Z,21.27
2018-09-16T03:41:40.393Z,21.29
2018-09-16T03:42:40.329Z,21.3
2018-09-16T03:43:40.233Z,21.3
2018-09-16T03:44:40.154Z,21.29
2018-09-16T03:45:40.371Z,21.29
2018-09-16T03:46:40.611Z,21.28
2018-09-16T03:47:40.324Z,21.28
2018-09-16T03:48:40.285Z,21.28
2018-09-16T03:49:40.303Z,21.29
2018-09-16T03:50:40.475Z,21.29
2018-09-16T03:51:40.696Z,21.29
2018-09-16T03:52:40.365Z,21.31
2018-09-16T03:53:40.200Z,21.28
2018-09-16T03:54:40.356Z,21.29
2018-09-16T03:55:40.240Z,21.3
2018-09-16T03:56:40.421Z,21.27
2018-09-16T03:57:40.180Z,21.28
2018-09-16T03:58:40.234Z,21.28
2018-09-16T03:59:40.023Z,21.28
2018-09-16T04:00:40.441Z,21.28
2018-09-16T04:01:40.209Z,21.27
2018-09-16T04:02:40.172Z,21.3
2018-09-16T04:03:40.269Z,21.29
2018-09-16T04:04:40.113Z,21.28
2018-09-16T04:05:40.340Z,21.28
2018-09-16T04:06:40.387Z,21.29
2018-09-16T04:07:40.158Z,21.27
2018-09-16T04:08:40.282Z,21.29
2018-09-16T04:09:40.137Z,21.29
2018-09-16T04:10:40.339Z,21.25
2018-09-16T04:11:40.268Z,21.28
2018-09-16T04:12:40.317Z,21.25
2018-09-16T04:13:40.309Z,21.27
2018-09-16T04:14:40.071Z,21.27
2018-09-16T04:15:40.454Z,21.27
2018-09-16T04:16:40.578Z,21.28
2018-09-16T04:17:40.285Z,21.25
2018-09-16T04:18:40.255Z,21.31
2018-09-16T04:19:40.459Z,21.27
2018-09-16T04:20:40.329Z,21.29
2018-09-16T04:21:40.107Z,21.29
2018-09-16T04:22:40.108Z,21.3
2018-09-16T04:23:40.280Z,21.27
2018-09-16T04:24:40.216Z,21.29
2018-09-16T04:25:40.271Z,21.27
2018-09-16T04:26:40.300Z,21.28
2018-09-16T04:27:40.503Z,21.25
2018-09-16T04:28:40.174Z,21.25
2018-09-16T04:29:40.277Z,21.27
2018-09-16T04:30:40.272Z,21.27
2018-09-16T04:31:40.110Z,21.27
2018-09-16T04:32:40.284Z,21.25
2018-09-16T04:33:40.193Z,21.25
2018-09-16T04:34:40.057Z,21.27
2018-09-16T04:35:40.202Z,21.28
2018-09-16T04:36:40.329Z,21.25
2018-09-16T04:37:40.190Z,21.27
2018-09-16T04:38:40.318Z,21.24
2018-09-16T04:39:40.246Z,21.28
2018-09-16T04:40:40.059Z,21.25
2018-09-16T04:41:40.246Z,21.29
2018-09-16T04:42:40.310Z,21.25
2018-09-16T04:43:40.402Z,21.25
2018-09-16T04:44:40.358Z,21.25
2018-09-16T04:45:40.306Z,21.25
2018-09-16T04:46:40.145Z,21.23
2018-09-16T04:47:40.168Z,21.27
2018-09-16T04:48:40.589Z,21.27
2018-09-16T04:49:40.152Z,21.25
2018-09-16T04:50:40.017Z,21.25
2018-09-16T04:51:40.134Z,21.27
2018-09-16T04:52:40.219Z,21.24
2018-09-16T04:53:40.157Z,21.23
2018-09-16T04:54:40.222Z,21.24
2018-09-16T04:55:40.185Z,21.22
2018-09-16T04:56:40.323Z,21.23
2018-09-16T04:57:40.337Z,21.25
2018-09-16T04:58:40.331Z,21.24
2018-09-16T04:59:40.203Z,21.23
2018-09-16T05:00:40.276Z,21.24
2018-09-16T05:01:40.178Z,21.24
2018-09-16T05:02:40.163Z,21.24
2018-09-16T05:03:40.163Z,21.28
2018-09-16T05:04:40.133Z,21.24
2018-09-16T05:05:40.095Z,21.25
2018-09-16T05:06:40.164Z,21.23
2018-09-16T05:07:40.511Z,21.24
2018-09-16T05:08:40.221Z,21.24
2018-09-16T05:09:40.428Z,21.23
2018-09-16T05:10:40.087Z,21.24
2018-09-16T05:11:40.375Z,21.24
2018-09-16T05:12:39.955Z,21.22
2018-09-16T05:13:40.183Z,21.23
2018-09-16T05:14:40.195Z,21.24
2018-09-16T05:15:40.166Z,21.24
2018-09-16T05:16:40.013Z,21.21
2018-09-16T05:17:40.214Z,21.24
2018-09-16T05:18:40.254Z,21.21
2018-09-16T05:19:40.109Z,21.22
2018-09-16T05:20:40.534Z,21.22
2018-09-16T05:21:40.131Z,21.24
2018-09-16T05:22:41.164Z,21.21
2018-09-16T05:23:40.289Z,21.24
2018-09-16T05:24:40.348Z,21.23
2018-09-16T05:25:40.676Z,21.21
2018-09-16T05:26:40.159Z,21.24
2018-09-16T05:27:40.123Z,21.22
2018-09-16T05:28:40.158Z,21.24
2018-09-16T05:29:40.059Z,21.24
2018-09-16T05:30:40.339Z,21.21
2018-09-16T05:31:40.141Z,21.23
2018-09-16T05:32:40.106Z,21.21
2018-09-16T05:33:40.102Z,21.23
2018-09-16T05:34:40.331Z,21.22
2018-09-16T05:35:40.219Z,21.24
2018-09-16T05:36:40.438Z,21.22
2018-09-16T05:37:40.365Z,21.21
2018-09-16T05:38:40.040Z,21.22
2018-09-16T05:39:40.240Z,21.23
2018-09-16T05:40:40.252Z,21.24
2018-09-16T05:41:40.375Z,21.23
2018-09-16T05:42:40.233Z,21.22
2018-09-16T05:43:40.268Z,21.2
2018-09-16T05:44:40.190Z,21.22
2018-09-16T05:45:40.340Z,21.21
2018-09-16T05:46:40.432Z,21.22
2018-09-16T05:47:40.172Z,21.21
2018-09-16T05:48:40.282Z,21.2
2018-09-16T05:49:40.262Z,21.21
2018-09-16T05:50:40.243Z,21.19
2018-09-16T05:51:40.180Z,21.21
2018-09-16T05:52:40.543Z,21.21
2018-09-16T05:53:40.225Z,21.22
2018-09-16T05:54:40.060Z,21.2
2018-09-16T05:55:40.400Z,21.21
2018-09-16T05:56:40.321Z,21.2
2018-09-16T05:57:40.525Z,21.19
2018-09-16T05:58:40.389Z,21.22
2018-09-16T05:59:40.208Z,21.21
2018-09-16T06:00:40.105Z,21.21
2018-09-16T06:01:40.251Z,21.2
2018-09-16T06:02:40.277Z,21.21
2018-09-16T06:03:40.197Z,21.2
2018-09-16T06:04:40.812Z,21.22
2018-09-16T06:05:40.499Z,21.23
2018-09-16T06:06:40.870Z,21.2
2018-09-16T06:07:40.223Z,21.21
2018-09-16T06:08:40.233Z,21.2
2018-09-16T06:09:40.540Z,21.18
2018-09-16T06:10:40.773Z,21.18
2018-09-16T06:11:40.091Z,21.2
2018-09-16T06:12:40.027Z,21.2
2018-09-16T06:13:40.334Z,21.21
2018-09-16T06:14:40.124Z,21.21
2018-09-16T06:15:40.259Z,21.19
2018-09-16T06:16:40.692Z,21.19
2018-09-16T06:17:40.278Z,21.19
2018-09-16T06:18:40.278Z,21.19
2018-09-16T06:19:40.116Z,21.19
2018-09-16T06:20:40.184Z,21.19
2018-09-16T06:21:40.129Z,21.2
2018-09-16T06:22:40.385Z,21.19
2018-09-16T06:23:40.070Z,21.2
2018-09-16T06:24:40.535Z,21.2
2018-09-16T06:25:40.313Z,21.2
2018-09-16T06:26:40.047Z,21.2
2018-09-16T06:27:40.240Z,21.19
2018-09-16T06:28:40.965Z,21.19
2018-09-16T06:29:40.349Z,21.18
2018-09-16T06:30:40.305Z,21.19
2018-09-16T06:31:40.200Z,21.19
2018-09-16T06:32:40.284Z,21.2
2018-09-16T06:33:40.381Z,21.19
2018-09-16T06:34:40.231Z,21.19
2018-09-16T06:35:40.050Z,21.22
2018-09-16T06:36:40.163Z,21.19
2018-09-16T06:37:40.429Z,21.18
2018-09-16T06:38:40.334Z,21.19
2018-09-16T06:39:40.224Z,21.19
2018-09-16T06:40:40.047Z,21.17
2018-09-16T06:41:40.213Z,21.17
2018-09-16T06:42:40.359Z,21.18
2018-09-16T06:43:40.100Z,21.18
2018-09-16T06:44:40.225Z,21.21
2018-09-16T06:45:40.174Z,21.06
2018-09-16T06:46:40.074Z,20.96
2018-09-16T06:47:40.279Z,20.88
2018-09-16T06:48:40.280Z,20.84
2018-09-16T06:49:40.151Z,20.81
2018-09-16T06:50:40.058Z,20.78
2018-09-16T06:51:40.135Z,20.69
2018-09-16T06:52:40.172Z,20.64
2018-09-16T06:53:40.088Z,20.58
2018-09-16T06:54:40.099Z,20.57
2018-09-16T06:55:40.190Z,20.49
2018-09-16T06:56:40.134Z,20.45
2018-09-16T06:57:40.178Z,20.49
2018-09-16T06:58:40.151Z,20.45
2018-09-16T06:59:40.335Z,20.45
2018-09-16T07:00:40.533Z,20.35
2018-09-16T07:01:40.247Z,20.34
2018-09-16T07:02:40.204Z,20.41
2018-09-16T07:03:40.231Z,20.36
2018-09-16T07:04:40.259Z,20.35
2018-09-16T07:05:40.256Z,20.33
2018-09-16T07:06:40.287Z,20.25
2018-09-16T07:07:40.073Z,20.29
2018-09-16T07:08:40.082Z,20.29
2018-09-16T07:09:40.271Z,20.27
2018-09-16T07:10:40.283Z,20.26
2018-09-16T07:11:40.244Z,20.24
2018-09-16T07:12:40.199Z,20.27
2018-09-16T07:13:40.264Z,20.3
2018-09-16T07:14:40.429Z,20.3
2018-09-16T07:15:40.189Z,20.26
2018-09-16T07:16:40.126Z,20.26
2018-09-16T07:17:40.203Z,20.26
2018-09-16T07:18:40.243Z,20.18
2018-09-16T07:19:40.334Z,20.17
2018-09-16T07:20:40.173Z,20.16
2018-09-16T07:21:40.134Z,20.14
2018-09-16T07:22:40.341Z,20.19
2018-09-16T07:23:40.173Z,20.17
2018-09-16T07:24:40.185Z,20.2
2018-09-16T07:25:40.085Z,20.19
2018-09-16T07:26:40.410Z,20.18
2018-09-16T07:27:40.208Z,20.18
2018-09-16T07:28:40.249Z,20.16
2018-09-16T07:29:40.477Z,20.13
2018-09-16T07:30:40.294Z,20.15
2018-09-16T07:31:40.308Z,20.14
2018-09-16T07:32:40.225Z,20.1
2018-09-16T07:33:40.633Z,20.12
2018-09-16T07:34:40.206Z,20.1
2018-09-16T07:35:40.336Z,20.13
2018-09-16T07:36:40.101Z,20.11
2018-09-16T07:37:40.167Z,20.13
2018-09-16T07:38:40.186Z,20.1
2018-09-16T07:39:39.991Z,20.14
2018-09-16T07:40:40.064Z,20.15
2018-09-16T07:41:40.239Z,20.16
2018-09-16T07:42:40.280Z,20.14
2018-09-16T07:43:40.152Z,20.12
2018-09-16T07:44:40.213Z,20.07
2018-09-16T07:45:40.193Z,20.11
2018-09-16T07:46:40.580Z,20.14
2018-09-16T07:47:40.108Z,20.09
2018-09-16T07:48:40.115Z,20.07
2018-09-16T07:49:40.243Z,20.04
2018-09-16T07:50:40.083Z,20.07
2018-09-16T07:51:40.197Z,20.07
2018-09-16T07:52:40.435Z,20.04
2018-09-16T07:53:40.209Z,20
2018-09-16T07:54:40.208Z,19.98
2018-09-16T07:55:40.422Z,19.99
2018-09-16T07:56:40.654Z,19.99
2018-09-16T07:57:40.231Z,20.03
2018-09-16T07:58:40.174Z,20.02
2018-09-16T07:59:39.979Z,20.07
2018-09-16T08:00:40.517Z,20.03
2018-09-16T08:01:40.236Z,20.07
2018-09-16T08:02:40.044Z,20.06
2018-09-16T08:03:40.102Z,20.05
2018-09-16T08:04:40.222Z,20.03
2018-09-16T08:05:40.764Z,20.02
2018-09-16T08:06:40.050Z,20.02
2018-09-16T08:07:39.963Z,20.04
2018-09-16T08:08:40.160Z,20.04
2018-09-16T08:09:40.155Z,20.04
2018-09-16T08:10:39.989Z,20.02
2018-09-16T08:11:39.979Z,20.01
2018-09-16T08:12:40.098Z,20
2018-09-16T08:13:41.168Z,20.01
2018-09-16T08:14:40.003Z,20.07
2018-09-16T08:15:40.143Z,20.09
2018-09-16T08:16:40.267Z,20.12
2018-09-16T08:17:40.435Z,20.09
2018-09-16T08:18:40.171Z,20.03
2018-09-16T08:19:40.209Z,20.03
2018-09-16T08:20:40.294Z,20.12
2018-09-16T08:21:40.228Z,20.11
2018-09-16T08:22:40.216Z,20.13
2018-09-16T08:23:40.084Z,20.18
2018-09-16T08:24:39.991Z,20.19
2018-09-16T08:25:40.033Z,20.22
2018-09-16T08:26:40.352Z,20.27
2018-09-16T08:27:40.294Z,20.27
2018-09-16T08:28:40.088Z,20.27
2018-09-16T08:29:40.186Z,20.31
2018-09-16T08:34:47.926Z,20.45
2018-09-16T08:35:47.792Z,20.48
2018-09-16T08:36:47.773Z,20.47
2018-09-16T08:37:48.101Z,20.49
2018-09-16T08:38:47.602Z,20.5
2018-09-16T08:39:47.832Z,20.55
2018-09-16T08:40:47.762Z,20.57
2018-09-16T08:41:48.127Z,20.62
2018-09-16T08:42:47.954Z,20.64
2018-09-16T08:43:48.009Z,20.64
2018-09-16T08:45:20.527Z,20.71
2018-09-16T08:46:20.424Z,20.7
2018-09-16T08:47:20.619Z,20.7
2018-09-16T08:48:20.600Z,20.66
2018-09-16T08:49:20.805Z,20.68
2018-09-16T08:51:06.339Z,20.71
2018-09-16T08:52:19.239Z,20.71
2018-09-16T08:53:19.174Z,20.69
2018-09-16T08:54:19.099Z,20.63
2018-09-16T08:55:09.825Z,20.61
2018-09-16T08:56:09.754Z,20.62
2018-09-16T08:57:28.991Z,20.61
2018-09-16T08:58:30.313Z,20.62
2018-09-16T09:02:32.025Z,20.5
2018-09-16T09:03:32.076Z,20.47
2018-09-16T09:04:31.968Z,20.46
2018-09-16T09:05:32.201Z,20.45
2018-09-16T09:06:32.161Z,20.48
2018-09-16T09:08:07.806Z,20.46
2018-09-16T09:14:52.725Z,20.43
2018-09-16T09:16:03.319Z,20.4
2018-09-16T09:17:03.454Z,20.4
2018-09-16T09:18:03.466Z,20.43
2018-09-16T09:19:03.261Z,20.42
2018-09-16T09:20:03.315Z,20.41
2018-09-16T09:21:03.316Z,20.41
2018-09-16T09:22:03.217Z,20.44
2018-09-16T09:23:03.462Z,20.43
2018-09-16T09:24:03.137Z,20.45
2018-09-16T09:25:03.275Z,20.43
2018-09-16T09:26:03.276Z,20.46
2018-09-16T09:26:45.318Z,20.47
2018-09-16T09:27:45.080Z,20.51
2018-09-16T09:28:45.185Z,20.55
2018-09-16T09:29:45.315Z,20.54
2018-09-16T09:30:45.176Z,20.59
2018-09-16T09:33:45.220Z,20.59
2018-09-16T09:34:45.251Z,20.61
2018-09-16T09:35:46.108Z,20.59
2018-09-16T09:39:45.408Z,20.66
2018-09-16T09:40:45.731Z,20.69
2018-09-16T09:41:45.578Z,20.74
2018-09-16T09:42:45.764Z,20.73
2018-09-16T09:44:20.165Z,20.71
2018-09-16T09:44:50.943Z,20.69
2018-09-16T09:45:36.298Z,20.71
2018-09-16T09:46:36.372Z,20.77
2018-09-16T09:47:36.653Z,20.75
2018-09-16T09:48:36.316Z,20.74
2018-09-16T09:49:36.573Z,20.73
2018-09-16T09:50:36.564Z,20.74
2018-09-16T09:51:36.413Z,20.74
2018-09-16T09:52:36.242Z,20.71
2018-09-16T09:53:36.321Z,20.72
2018-09-16T09:54:36.351Z,20.75
2018-09-16T09:55:36.581Z,20.72
2018-09-16T09:56:36.152Z,20.72
2018-09-16T09:57:36.266Z,20.73
2018-09-16T09:58:36.237Z,20.75
2018-09-16T09:59:36.266Z,20.77
2018-09-16T10:00:36.239Z,20.79
2018-09-16T10:01:36.384Z,20.78
2018-09-16T10:02:36.178Z,20.81
2018-09-16T10:03:36.471Z,20.83
2018-09-16T10:04:36.328Z,20.81
2018-09-16T10:05:36.151Z,20.83
2018-09-16T10:06:36.478Z,20.83
2018-09-16T10:07:36.272Z,20.83
2018-09-16T10:08:36.376Z,20.83
2018-09-16T10:09:36.343Z,20.84
2018-09-16T10:10:36.217Z,20.8
2018-09-16T10:11:36.298Z,20.81
2018-09-16T10:12:36.180Z,20.79
2018-09-16T10:13:36.215Z,20.79
2018-09-16T10:14:36.341Z,20.83
2018-09-16T10:15:36.353Z,20.81
2018-09-16T10:16:36.297Z,20.81
2018-09-16T10:17:36.194Z,20.81
2018-09-16T10:18:36.287Z,20.84
2018-09-16T10:19:36.316Z,20.8
2018-09-16T10:20:36.363Z,20.83
2018-09-16T10:21:36.552Z,20.83
2018-09-16T10:22:36.962Z,20.83
2018-09-16T10:23:36.722Z,20.84
2018-09-16T10:24:36.867Z,20.86
2018-09-16T10:25:36.284Z,20.86
2018-09-16T10:26:13.744Z,20.99
2018-09-16T10:27:13.558Z,21.06
2018-09-16T10:27:46.915Z,21.1
2018-09-16T10:28:47.388Z,21.07
2018-09-16T10:29:46.843Z,21.08
2018-09-16T10:30:46.834Z,21.06
2018-09-16T10:31:47.348Z,21.08
2018-09-16T10:32:47.428Z,21.06
2018-09-16T10:33:47.093Z,21.07
2018-09-16T10:34:46.979Z,21.05
2018-09-16T10:35:46.965Z,21.06
2018-09-16T10:36:47.425Z,21.08
2018-09-16T10:37:46.795Z,21.07
2018-09-16T10:38:48.141Z,21.06
2018-09-16T10:39:47.424Z,21.05
2018-09-16T10:40:47.518Z,21.03
2018-09-16T10:41:46.854Z,21.05
2018-09-16T10:42:47.173Z,21.06
2018-09-16T10:43:47.095Z,21.07
2018-09-16T10:44:47.364Z,21.07
2018-09-16T10:45:47.017Z,21.06
2018-09-16T10:46:47.248Z,21.04
2018-09-16T10:47:46.877Z,21.03
2018-09-16T10:48:46.916Z,21.04
2018-09-16T10:49:46.785Z,21.06
2018-09-16T10:50:46.806Z,21.05
2018-09-16T10:51:46.783Z,21.05
2018-09-16T10:52:46.994Z,21.06
2018-09-16T10:53:47.145Z,21.05
2018-09-16T10:54:47.835Z,21.05
2018-09-16T10:55:47.336Z,21.05
2018-09-16T10:56:46.923Z,21.03
2018-09-16T10:57:47.252Z,21.04
2018-09-16T10:58:46.751Z,21.03
2018-09-16T10:59:47.139Z,21.02
2018-09-16T11:00:46.808Z,21.02
2018-09-16T11:01:46.856Z,21.01
2018-09-16T11:02:46.819Z,21
2018-09-16T11:03:46.968Z,20.98
2018-09-16T11:04:46.965Z,21
2018-09-16T11:05:47.033Z,20.99
2018-09-16T11:06:47.061Z,20.99
2018-09-16T11:07:47.509Z,21
2018-09-16T11:08:46.935Z,20.96
2018-09-16T11:09:46.840Z,20.99
2018-09-16T11:10:46.731Z,20.96
2018-09-16T11:11:47.053Z,20.96
2018-09-16T11:12:46.796Z,20.95
2018-09-16T11:13:46.995Z,20.95
2018-09-16T11:14:46.748Z,20.96
2018-09-16T11:15:48.005Z,20.95
2018-09-16T11:16:47.225Z,20.95
2018-09-16T11:17:46.995Z,20.96
2018-09-16T11:18:46.813Z,20.96
2018-09-16T11:19:46.851Z,20.99
2018-09-16T11:20:46.771Z,20.99
2018-09-16T11:21:47.397Z,21.02
2018-09-16T11:22:46.985Z,21
2018-09-16T11:23:47.006Z,21.02
2018-09-16T11:24:47.028Z,21.03
2018-09-16T11:25:47.003Z,21.02
2018-09-16T11:26:46.712Z,21.02
2018-09-16T11:27:46.905Z,21
2018-09-16T11:28:47.005Z,21.03
2018-09-16T11:29:46.914Z,21.03
2018-09-16T11:30:46.853Z,21.02
2018-09-16T11:31:47.092Z,21.05
2018-09-16T11:32:46.728Z,21.02
2018-09-16T11:33:47.031Z,21.03
2018-09-16T11:34:47.873Z,21.04
2018-09-16T11:35:46.865Z,21.05
2018-09-16T11:36:47.291Z,21.05
2018-09-16T11:37:46.968Z,21.03
2018-09-16T11:38:47.678Z,21.04
2018-09-16T11:39:47.264Z,21.05
2018-09-16T11:40:46.769Z,21.06
2018-09-16T11:41:46.689Z,21.03
2018-09-16T11:42:46.797Z,21.05
2018-09-16T11:43:46.841Z,21.04
2018-09-16T11:44:47.033Z,21.03
2018-09-16T11:45:46.909Z,21.05
2018-09-16T11:46:46.785Z,21.06
2018-09-16T11:47:46.870Z,21.06
2018-09-16T11:48:47.348Z,21.06
2018-09-16T11:49:47.091Z,21.08
2018-09-16T11:50:46.898Z,21.05
2018-09-16T11:51:47.321Z,21.06
2018-09-16T11:52:47.115Z,21.06
2018-09-16T11:53:46.949Z,21.05
2018-09-16T11:54:46.986Z,21.05
2018-09-16T11:55:47.086Z,21.04
2018-09-16T11:56:46.872Z,21.04
2018-09-16T11:57:47.030Z,21.02
2018-09-16T11:58:47.070Z,21.03
2018-09-16T11:59:46.789Z,21.05
2018-09-16T12:00:47.133Z,21.05
2018-09-16T12:01:46.861Z,21.07
2018-09-16T12:02:47.876Z,21.07
2018-09-16T12:03:47.069Z,21.09
2018-09-16T12:04:46.972Z,21.09
2018-09-16T12:05:47.445Z,21.09
2018-09-16T12:06:46.750Z,21.07
2018-09-16T12:07:47.094Z,21.07
2018-09-16T12:08:47.002Z,21.09
2018-09-16T12:09:46.983Z,21.08
2018-09-16T12:10:47.015Z,21.1
2018-09-16T12:11:47.207Z,21.08
2018-09-16T12:12:46.785Z,21.07
2018-09-16T12:13:46.730Z,21.09
2018-09-16T12:14:46.858Z,21.1
2018-09-16T12:15:46.850Z,21.1
2018-09-16T12:16:46.748Z,21.1
2018-09-16T12:17:47.728Z,21.09
2018-09-16T12:18:46.969Z,21.07
2018-09-16T12:19:46.793Z,21.09
2018-09-16T12:20:46.768Z,21.09
2018-09-16T12:21:47.236Z,21.08
2018-09-16T12:22:46.751Z,21.09
2018-09-16T12:23:46.926Z,21.08
2018-09-16T12:24:47.013Z,21.08
2018-09-16T12:25:47.082Z,21.08
2018-09-16T12:26:47.113Z,21.09
2018-09-16T12:27:46.980Z,21.1
2018-09-16T12:28:46.949Z,21.1
2018-09-16T12:29:47.172Z,21.08
2018-09-16T12:30:47.193Z,21.08
2018-09-16T12:31:47.071Z,21.09
2018-09-16T12:32:46.950Z,21.08
2018-09-16T12:33:46.998Z,21.1
2018-09-16T12:34:47.123Z,21.1
2018-09-16T12:35:47.454Z,21.11
2018-09-16T12:36:47.097Z,21.09
2018-09-16T12:37:46.952Z,21.11
2018-09-16T12:38:46.742Z,21.08
2018-09-16T12:39:47.017Z,21.08
2018-09-16T12:40:46.829Z,21.07
2018-09-16T12:41:47.176Z,21.07
2018-09-16T12:42:47.088Z,21.06
2018-09-16T12:43:47.131Z,21.07
2018-09-16T12:44:46.993Z,21.06
2018-09-16T12:45:47.049Z,21.06
2018-09-16T12:46:47.068Z,21.06
2018-09-16T12:47:47.121Z,21.05
2018-09-16T12:48:46.927Z,21.03
2018-09-16T12:49:47.052Z,21.02
2018-09-16T12:50:47.117Z,21.02
2018-09-16T12:51:47.056Z,21.02
2018-09-16T12:52:46.778Z,21.04
2018-09-16T12:53:47.076Z,21.03
2018-09-16T12:54:46.739Z,21.02
2018-09-16T12:55:46.899Z,21.03
2018-09-16T12:56:46.861Z,21.01
2018-09-16T12:57:47.150Z,21.02
2018-09-16T12:58:46.740Z,21.02
2018-09-16T12:59:46.857Z,21.03
2018-09-16T13:00:47.109Z,21
2018-09-16T13:01:47.012Z,21.03
2018-09-16T13:02:47.140Z,21.02
2018-09-16T13:03:46.882Z,21.01
2018-09-16T13:04:46.898Z,21.03
2018-09-16T13:05:47.170Z,21
2018-09-16T13:06:47.041Z,21
2018-09-16T13:07:47.002Z,21.02
2018-09-16T13:08:46.879Z,21.02
2018-09-16T13:09:47.184Z,21.01
2018-09-16T13:10:47.139Z,21.02
2018-09-16T13:11:46.748Z,20.99
2018-09-16T13:12:46.948Z,21.02
2018-09-16T13:13:47.125Z,21.03
2018-09-16T13:14:46.673Z,21.02